Nutzungsgebühren

Rettungshubschrauber am Flugplatz Konstanz

Lande- und Abstellgebühren

Höchstabfluggewicht
Abstellgebühr
Landegebühr
Bei erhöhtem Lärmschutz
bis 1.000 kg € 3,60 € 10,30 € 5,70
1.000 - 1.200 kg € 4,65 € 12,30 € 7,20
1.200 - 1.400 kg € 5,65 € 18,50 € 10,30
1.400 - 2.000 kg € 6,15 € 25,65 € 14,90
2.000 - 3.000 kg € 10,30 € 34,90 € 20,55
3.000 - 4.000 kg € 15,40 € 92,35 € 73,90
Segelflieger € 2,05
Ultraleicht € 5,15

Service-Gebühren

Früh-/Spätabfertigung
(pro angefangener halber Stunde vor/nach Schließung):
€ 19,40

Live am Platz

Die Bilder unserer Webcams werden alle 5 Minuten aktualisiert.

Sonnenaufgang:

06:59 UTC / 07:59 Lokal

Sonnenuntergang:

16:10 UTC / 17:10 Lokal

METAR (22.01.2018 19:20 UTC):

EDNY 221920Z VRB01KT 8000 RA SCT006 BKN028 OVC033 07/06 Q1014
MVFR

TAF (22.01.2018 17:00 UTC):

TAF EDNY 221700Z 2218/2318 24012KT 7000 RA BKN020 BECMG 2218/2220 23005KT TEMPO 2218/2221 4000 RA BKN008 PROB30 TEMPO 2221/2307 BKN008 BECMG 2316/2318 VRB03KT

Alle Angaben unverbindlich und ohne Gewähr. Zeiten genähert.

Für den Verkehrslandeplatz Konstanz werden keine offiziellen Wetterinformationen herausgegeben. Daher werden zur Orientierung Daten des nahegelegenen Flughafens Friedrichshafen dargestellt.